Time;durP1;ratioP1;P1;durP2;ratioP2;P2;SDS_P1;SDS_P2;PMS_P1;PMS_P2;Temp;Humidity;BMP_temperature;BMP_pressure;BME280_temperature;BME280_humidity;BME280_pressure;Samples;Min_cycle;Max_cycle;Signal;HPM_P1;HPM_P2
2021/04/28 00:01:39;;;;;;;5.03;2.30;;;;;;;10.26;40.53;95564.00;5095099;28;20176;-60
2021/04/28 00:04:05;;;;;;;2.87;2.57;;;;;;;10.27;40.54;95556.94;5094032;28;20206;-61
2021/04/28 00:06:31;;;;;;;2.80;2.60;;;;;;;10.27;40.34;95555.09;5095642;28;20204;-61
2021/04/28 00:08:56;;;;;;;2.47;2.30;;;;;;;10.14;40.91;95545.03;5094888;28;20219;-61
2021/04/28 00:11:22;;;;;;;2.50;2.30;;;;;;;10.19;41.11;95549.56;5095737;28;20172;-61
2021/04/28 00:13:47;;;;;;;2.97;2.47;;;;;;;10.15;41.11;95554.47;5095705;28;20200;-61
2021/04/28 00:16:13;;;;;;;2.47;2.37;;;;;;;10.11;41.37;95550.00;5094822;28;20640;-63
2021/04/28 00:18:38;;;;;;;3.03;2.73;;;;;;;10.16;40.88;95545.63;5095553;28;20560;-61
2021/04/28 00:21:04;;;;;;;2.60;2.40;;;;;;;10.12;41.54;95552.38;5075958;28;20181;-61
2021/04/28 00:23:30;;;;;;;2.33;2.07;;;;;;;10.07;41.87;95554.19;5095610;28;20203;-62
2021/04/28 00:25:55;;;;;;;2.53;2.10;;;;;;;10.09;41.69;95546.84;5094585;28;20621;-62
2021/04/28 00:28:21;;;;;;;2.47;2.37;;;;;;;10.08;41.88;95540.84;5096577;28;20175;-63
2021/04/28 00:30:47;;;;;;;2.40;2.20;;;;;;;9.97;42.53;95544.44;5096478;28;20216;-61
2021/04/28 00:33:12;;;;;;;2.20;2.10;;;;;;;9.96;42.68;95548.09;5095973;28;21036;-61
2021/04/28 00:35:38;;;;;;;2.40;2.20;;;;;;;9.88;43.20;95546.72;5097734;28;20222;-64
2021/04/28 00:38:04;;;;;;;2.67;2.47;;;;;;;9.90;43.16;95541.25;5097051;28;20180;-62
2021/04/28 00:40:39;;;;;;;2.30;2.13;;;;;;;9.86;43.58;95542.81;5099560;28;20226;-59
2021/04/28 00:43:04;;;;;;;2.70;2.43;;;;;;;9.89;44.01;95548.31;5076688;28;20200;-61
2021/04/28 00:45:33;;;;;;;1.90;1.80;;;;;;;9.74;44.20;95537.75;5094675;28;20169;-62
2021/04/28 00:48:01;;;;;;;3.40;2.40;;;;;;;9.81;44.42;95534.91;5093642;28;20176;-61
2021/04/28 00:50:34;;;;;;;6.00;3.00;;;;;;;9.69;44.56;95529.88;5094197;28;20211;-61
2021/04/28 00:53:01;;;;;;;2.27;2.17;;;;;;;9.63;44.92;95530.09;5093877;28;20208;-60
2021/04/28 00:55:27;;;;;;;2.10;2.00;;;;;;;9.67;45.20;95528.53;5096511;28;20237;-61
2021/04/28 00:57:53;;;;;;;2.97;2.60;;;;;;;9.63;45.07;95532.72;5092876;28;20240;-60
2021/04/28 01:00:19;;;;;;;2.50;2.30;;;;;;;9.63;45.16;95533.50;5097023;28;20184;-61
2021/04/28 01:02:45;;;;;;;2.73;2.50;;;;;;;9.54;45.33;95524.50;5096657;28;20563;-61
2021/04/28 01:05:12;;;;;;;5.07;2.30;;;;;;;9.60;45.46;95528.75;5095718;28;20248;-61
2021/04/28 01:07:39;;;;;;;3.90;2.57;;;;;;;9.54;45.85;95527.94;5096920;28;20182;-61
2021/04/28 01:10:08;;;;;;;2.50;2.30;;;;;;;9.43;46.34;95522.88;5096038;28;20252;-61
2021/04/28 01:12:39;;;;;;;2.00;1.90;;;;;;;9.50;46.25;95518.22;5095654;28;20249;-61
2021/04/28 01:15:10;;;;;;;2.23;2.03;;;;;;;9.48;46.27;95523.69;5095783;28;20169;-62
2021/04/28 01:17:37;;;;;;;2.43;2.27;;;;;;;9.41;45.93;95515.28;5096347;28;20172;-61
2021/04/28 01:20:05;;;;;;;2.97;2.60;;;;;;;9.42;46.31;95510.81;5095223;28;20193;-61
2021/04/28 01:22:49;;;;;;;4.63;2.07;;;;;;;9.37;46.04;95513.41;5096639;28;20246;-61
2021/04/28 01:25:18;;;;;;;2.27;2.17;;;;;;;9.39;46.28;95508.72;5089225;28;20188;-61
2021/04/28 01:27:49;;;;;;;2.67;2.47;;;;;;;9.38;46.67;95512.38;5095875;28;20189;-61
2021/04/28 01:30:15;;;;;;;4.17;2.77;;;;;;;9.38;46.45;95513.16;5096335;28;20164;-61
2021/04/28 01:32:45;;;;;;;3.63;2.57;;;;;;;9.30;46.93;95508.41;5095954;28;20211;-61
2021/04/28 01:35:17;;;;;;;2.07;1.87;;;;;;;9.27;47.12;95514.13;5087721;28;20369;-60
2021/04/28 01:37:44;;;;;;;3.13;2.67;;;;;;;9.27;47.00;95503.66;5096381;28;20184;-61
2021/04/28 01:40:12;;;;;;;2.37;2.20;;;;;;;9.23;47.32;95513.03;5094490;28;20197;-60
2021/04/28 01:42:38;;;;;;;3.07;2.50;;;;;;;9.24;47.37;95509.41;5093981;28;20216;-60
2021/04/28 01:45:04;;;;;;;2.80;2.20;;;;;;;9.11;47.69;95510.59;5092992;28;20191;-61
2021/04/28 01:47:30;;;;;;;2.40;2.20;;;;;;;9.10;47.96;95518.66;5093700;28;20192;-59
2021/04/28 01:49:56;;;;;;;2.13;1.93;;;;;;;9.11;48.07;95517.63;5092420;28;20181;-60
2021/04/28 01:52:22;;;;;;;2.33;2.13;;;;;;;9.06;48.31;95507.16;5094465;28;20564;-60
2021/04/28 01:54:48;;;;;;;2.10;1.97;;;;;;;9.03;48.23;95512.84;5093755;28;20187;-60
2021/04/28 01:57:14;;;;;;;2.20;2.10;;;;;;;9.07;48.63;95517.34;5090905;28;20255;-60
2021/04/28 01:59:40;;;;;;;2.53;2.17;;;;;;;8.99;48.46;95511.78;5094181;28;20203;-61
2021/04/28 02:02:08;;;;;;;2.20;2.10;;;;;;;8.96;48.91;95507.06;5093501;28;20165;-61
2021/04/28 02:04:35;;;;;;;2.30;2.10;;;;;;;8.95;48.93;95508.09;5095075;28;20179;-61
2021/04/28 02:07:03;;;;;;;1.93;1.83;;;;;;;8.92;49.00;95504.13;5094331;28;20196;-61
2021/04/28 02:09:28;;;;;;;2.70;2.50;;;;;;;8.95;49.33;95508.09;5094151;28;20523;-61
2021/04/28 02:11:56;;;;;;;2.10;2.00;;;;;;;8.95;49.19;95505.47;5094024;28;20251;-60
2021/04/28 02:14:22;;;;;;;2.00;1.90;;;;;;;8.88;49.75;95500.44;5094542;28;20672;-61
2021/04/28 02:16:49;;;;;;;2.50;2.30;;;;;;;8.92;49.38;95501.53;5094131;28;20172;-61
2021/04/28 02:19:16;;;;;;;2.37;2.17;;;;;;;8.86;49.69;95502.50;5093044;28;20200;-62
2021/04/28 02:21:44;;;;;;;3.67;2.47;;;;;;;8.87;49.91;95493.63;5092730;28;20234;-62
2021/04/28 02:24:13;;;;;;;2.20;2.10;;;;;;;8.84;49.70;95485.50;5084840;28;20204;-61
2021/04/28 02:26:39;;;;;;;2.33;2.13;;;;;;;8.87;49.88;95492.84;5093050;28;20663;-61
2021/04/28 02:29:05;;;;;;;2.10;2.00;;;;;;;8.85;50.09;95489.72;5092070;28;20169;-62
2021/04/28 02:31:31;;;;;;;2.50;2.30;;;;;;;8.79;50.32;95477.63;5094168;28;20195;-62
2021/04/28 02:33:56;;;;;;;2.37;2.17;;;;;;;8.73;50.56;95487.25;5093854;28;20196;-62
2021/04/28 02:36:23;;;;;;;2.50;2.30;;;;;;;8.73;50.93;95484.63;5094580;28;20175;-61
2021/04/28 02:38:59;;;;;;;2.23;2.10;;;;;;;8.72;51.10;95489.06;5094938;28;20204;-63
2021/04/28 02:41:25;;;;;;;2.03;1.93;;;;;;;8.72;51.48;95486.44;5094810;28;20168;-61
2021/04/28 02:43:54;;;;;;;3.17;2.60;;;;;;;8.71;51.43;95484.06;5094055;28;20608;-61
2021/04/28 02:46:20;;;;;;;2.30;2.10;;;;;;;8.59;51.92;95486.03;5094726;28;20233;-61
2021/04/28 02:48:49;;;;;;;2.87;2.43;;;;;;;8.64;51.51;95486.09;5093127;28;20173;-61
2021/04/28 02:51:15;;;;;;;3.63;2.13;;;;;;;8.55;51.96;95487.56;5092166;28;20376;-60
2021/04/28 02:53:44;;;;;;;2.40;2.20;;;;;;;8.55;51.62;95488.38;5093696;28;20204;-60
2021/04/28 02:56:11;;;;;;;2.43;2.23;;;;;;;8.32;52.26;95478.97;5074977;28;20255;-61
2021/04/28 02:58:38;;;;;;;2.53;2.33;;;;;;;8.28;52.18;95490.91;5093099;28;20202;-60
2021/04/28 03:01:05;;;;;;;2.23;2.10;;;;;;;8.27;52.31;95480.72;5092515;28;20172;-62
2021/04/28 03:03:33;;;;;;;2.60;2.40;;;;;;;8.20;52.40;95483.50;5092094;28;20279;-61
2021/04/28 03:05:58;;;;;;;2.27;2.10;;;;;;;8.28;52.24;95477.88;5092747;28;20180;-62
2021/04/28 03:08:25;;;;;;;2.37;2.17;;;;;;;8.22;52.58;95476.22;5094515;28;20161;-63
2021/04/28 03:10:52;;;;;;;2.27;2.17;;;;;;;8.12;52.84;95483.94;5094330;28;20173;-61
2021/04/28 03:13:18;;;;;;;2.13;1.77;;;;;;;8.05;53.17;95490.34;5093270;28;20228;-61
2021/04/28 03:15:43;;;;;;;2.20;2.10;;;;;;;8.10;53.21;95480.78;5094205;28;20173;-63
2021/04/28 03:18:10;;;;;;;2.47;2.27;;;;;;;8.05;53.43;95482.53;5089457;28;20169;-64
2021/04/28 03:20:38;;;;;;;2.50;2.30;;;;;;;7.97;53.70;95483.72;5093943;28;20629;-62
2021/04/28 03:23:06;;;;;;;2.97;2.23;;;;;;;8.00;53.59;95480.66;5093366;28;20649;-61
2021/04/28 03:25:32;;;;;;;2.60;2.37;;;;;;;7.97;54.01;95478.50;5094400;28;20704;-63
2021/04/28 03:27:58;;;;;;;2.07;1.97;;;;;;;7.90;54.32;95483.94;5093509;28;20257;-61
2021/04/28 03:30:24;;;;;;;3.00;2.77;;;;;;;7.93;54.25;95480.03;5093979;28;20284;-62
2021/04/28 03:32:49;;;;;;;3.57;2.40;;;;;;;7.90;54.53;95475.31;5094373;28;20275;-63
2021/04/28 03:35:14;;;;;;;3.20;2.40;;;;;;;7.80;55.13;95477.78;5093038;28;20172;-62
2021/04/28 03:37:40;;;;;;;2.97;2.47;;;;;;;7.87;55.04;95473.97;5093678;28;20180;-61
2021/04/28 03:40:07;;;;;;;2.60;2.40;;;;;;;7.81;55.47;95474.13;5092504;28;20208;-61
2021/04/28 03:42:33;;;;;;;2.80;2.60;;;;;;;7.90;55.54;95475.31;5091303;28;20204;-61
2021/04/28 03:44:58;;;;;;;2.83;2.57;;;;;;;7.93;55.91;95474.81;5090155;28;20641;-62
2021/04/28 03:47:24;;;;;;;2.30;2.10;;;;;;;7.97;56.31;95470.69;5091142;28;20181;-62
2021/04/28 03:49:50;;;;;;;4.00;2.90;;;;;;;8.06;56.18;95473.69;5091178;28;20174;-62
2021/04/28 03:52:15;;;;;;;2.70;2.43;;;;;;;7.94;56.54;95477.19;5090353;28;20181;-62
2021/04/28 03:54:41;;;;;;;2.20;2.10;;;;;;;8.01;56.63;95474.41;5090970;28;20649;-61
2021/04/28 03:57:07;;;;;;;2.60;2.40;;;;;;;8.05;56.98;95475.50;5087508;28;20713;-60
2021/04/28 03:59:35;;;;;;;2.53;2.33;;;;;;;7.97;57.11;95477.75;5090883;28;20188;-60
2021/04/28 04:02:02;;;;;;;3.03;2.53;;;;;;;7.89;57.49;95484.94;5071926;28;20629;-60
2021/04/28 04:04:27;;;;;;;2.50;2.30;;;;;;;7.91;57.50;95488.09;5094216;28;20173;-60
2021/04/28 04:06:53;;;;;;;2.67;2.47;;;;;;;7.99;56.79;95491.31;5094193;28;20165;-60
2021/04/28 04:09:18;;;;;;;2.43;2.33;;;;;;;7.99;56.62;95483.50;5093677;28;20195;-60
2021/04/28 04:11:44;;;;;;;2.83;2.30;;;;;;;7.93;56.84;95487.84;5093313;28;20508;-61
2021/04/28 04:14:09;;;;;;;1.83;1.73;;;;;;;7.98;56.40;95494.97;5096079;28;20215;-62
2021/04/28 04:16:35;;;;;;;3.47;2.70;;;;;;;7.84;56.79;95495.31;5097993;28;20177;-59
2021/04/28 04:19:00;;;;;;;4.03;2.40;;;;;;;7.94;56.52;95492.84;5097553;28;20216;-60
2021/04/28 04:21:26;;;;;;;4.13;2.40;;;;;;;7.90;56.44;95488.34;5098260;28;20238;-60
2021/04/28 04:23:54;;;;;;;2.37;2.10;;;;;;;8.01;56.13;95497.88;5097486;28;20192;-60
2021/04/28 04:26:19;;;;;;;2.10;2.00;;;;;;;7.99;56.08;95497.34;5096848;28;20254;-61
2021/04/28 04:28:45;;;;;;;3.20;2.20;;;;;;;8.09;56.21;95504.50;5096535;28;20180;-61
2021/04/28 04:31:10;;;;;;;1.90;1.80;;;;;;;7.89;56.86;95499.81;5098042;28;20652;-60
2021/04/28 04:33:35;;;;;;;2.80;2.10;;;;;;;8.01;56.45;95504.94;5100090;28;20249;-61
2021/04/28 04:36:02;;;;;;;2.30;2.10;;;;;;;7.89;56.31;95505.03;5099617;28;20168;-61
2021/04/28 04:38:28;;;;;;;2.40;2.20;;;;;;;8.00;56.78;95501.53;5100096;28;20204;-61
2021/04/28 04:40:53;;;;;;;2.40;2.20;;;;;;;8.01;56.78;95510.16;5100886;28;20237;-61
2021/04/28 04:43:18;;;;;;;4.27;2.57;;;;;;;8.01;56.92;95497.88;5098984;28;20203;-61
2021/04/28 04:45:44;;;;;;;3.20;2.40;;;;;;;8.11;56.54;95497.22;5099461;28;20179;-61
2021/04/28 04:48:10;;;;;;;2.73;2.53;;;;;;;8.13;56.62;95500.38;5096635;28;20191;-61
2021/04/28 04:50:36;;;;;;;1.90;1.77;;;;;;;8.19;56.37;95492.34;5098139;28;20212;-61
2021/04/28 04:53:03;;;;;;;2.60;2.40;;;;;;;8.29;56.30;95495.09;5096565;28;20221;-61
2021/04/28 04:55:28;;;;;;;2.83;2.50;;;;;;;8.49;55.86;95494.56;5097541;28;20222;-61
2021/04/28 04:57:54;;;;;;;2.53;2.27;;;;;;;8.73;55.47;95500.31;5093632;28;20228;-60
2021/04/28 05:00:20;;;;;;;2.27;2.13;;;;;;;9.01;54.29;95500.06;5095796;28;20674;-60
2021/04/28 05:02:46;;;;;;;2.70;2.50;;;;;;;9.04;54.04;95502.16;5095874;28;20741;-61
2021/04/28 05:05:14;;;;;;;2.93;2.57;;;;;;;9.15;53.82;95500.41;5095467;28;20172;-61
2021/04/28 05:07:39;;;;;;;2.57;2.33;;;;;;;9.29;53.65;95504.22;5095858;28;20172;-61
2021/04/28 05:10:08;;;;;;;2.53;2.33;;;;;;;9.58;52.53;95504.69;5095396;28;20252;-61
2021/04/28 05:12:34;;;;;;;2.30;2.20;;;;;;;9.76;52.24;95509.50;5096141;28;20614;-61
2021/04/28 05:15:02;;;;;;;2.90;2.60;;;;;;;9.90;51.68;95504.63;5096047;28;20185;-61
2021/04/28 05:17:28;;;;;;;3.17;2.40;;;;;;;10.12;51.35;95505.25;5096301;28;20234;-59
2021/04/28 05:19:53;;;;;;;2.40;2.30;;;;;;;10.15;51.09;95496.09;5093298;28;20193;-59
2021/04/28 05:22:23;;;;;;;3.17;2.87;;;;;;;10.45;50.87;95500.69;5092166;28;20430;-56
2021/04/28 05:24:48;;;;;;;2.80;2.60;;;;;;;10.56;50.76;95502.31;5092252;28;20168;-59
2021/04/28 05:27:14;;;;;;;2.47;2.27;;;;;;;10.60;50.81;95504.16;5073977;28;20168;-64
2021/04/28 05:29:39;;;;;;;2.70;2.50;;;;;;;10.83;50.87;95514.19;5093024;28;20248;-60
2021/04/28 05:32:05;;;;;;;2.90;2.70;;;;;;;11.08;49.77;95510.03;5091506;28;20510;-62
2021/04/28 05:34:30;;;;;;;3.40;3.10;;;;;;;11.29;49.03;95503.75;5092456;28;20541;-62
2021/04/28 05:36:55;;;;;;;3.00;2.80;;;;;;;11.50;49.03;95507.16;5092581;28;20176;-62
2021/04/28 05:39:21;;;;;;;2.90;2.70;;;;;;;11.63;49.06;95511.88;5070266;28;20414;-62
2021/04/28 05:41:46;;;;;;;3.30;3.00;;;;;;;11.66;48.31;95513.97;5089754;28;20333;-62
2021/04/28 05:44:12;;;;;;;4.03;3.43;;;;;;;11.63;48.21;95509.25;5091686;28;20295;-63
2021/04/28 05:46:38;;;;;;;3.60;3.30;;;;;;;11.69;48.21;95510.81;5092768;28;20587;-62
2021/04/28 05:49:05;;;;;;;3.50;3.20;;;;;;;11.88;48.32;95511.84;5077224;28;20177;-62
2021/04/28 05:51:31;;;;;;;3.57;3.27;;;;;;;11.85;48.22;95511.63;5096528;28;20173;-63
2021/04/28 05:53:57;;;;;;;3.23;2.93;;;;;;;11.92;48.27;95515.53;5096565;28;20274;-62
2021/04/28 05:56:22;;;;;;;3.20;2.90;;;;;;;11.73;48.44;95511.88;5087473;28;20538;-63
2021/04/28 05:58:48;;;;;;;3.13;2.83;;;;;;;11.84;48.42;95508.19;5058956;28;20194;-63
2021/04/28 06:01:15;;;;;;;3.40;2.97;;;;;;;11.97;47.90;95507.66;5061655;28;20181;-63
2021/04/28 06:03:40;;;;;;;3.70;3.40;;;;;;;12.06;47.73;95510.50;5053209;28;20205;-63
2021/04/28 06:06:09;;;;;;;3.40;2.90;;;;;;;12.20;47.11;95508.13;5052348;28;20518;-63
2021/04/28 06:08:35;;;;;;;3.03;2.77;;;;;;;12.12;47.56;95508.66;5053576;28;20189;-62
2021/04/28 06:11:06;;;;;;;3.20;2.90;;;;;;;12.28;47.71;95507.56;5055236;28;20181;-63
2021/04/28 06:13:32;;;;;;;3.90;2.83;;;;;;;12.60;46.52;95507.94;5063501;28;20189;-65
2021/04/28 06:15:57;;;;;;;3.20;2.90;;;;;;;12.75;45.62;95499.22;5063753;28;20558;-63
2021/04/28 06:18:22;;;;;;;3.67;3.37;;;;;;;12.82;45.33;95507.56;5063285;28;20697;-63
2021/04/28 06:20:48;;;;;;;3.47;3.17;;;;;;;12.87;45.25;95504.94;5065850;28;20657;-63
2021/04/28 06:23:13;;;;;;;6.17;3.73;;;;;;;12.68;45.86;95498.72;5061314;28;20213;-63
2021/04/28 06:25:39;;;;;;;3.20;2.90;;;;;;;12.80;45.78;95501.81;5063550;28;20174;-63
2021/04/28 06:28:07;;;;;;;3.63;3.33;;;;;;;12.72;46.76;95499.72;5060478;28;20222;-63
2021/04/28 06:30:32;;;;;;;3.37;3.07;;;;;;;12.83;46.33;95501.25;5055582;28;20185;-62
2021/04/28 06:32:58;;;;;;;6.23;3.17;;;;;;;12.91;46.46;95503.31;5052706;28;20201;-62
2021/04/28 06:35:23;;;;;;;3.13;2.87;;;;;;;13.21;45.95;95513.66;5055157;28;20335;-64
2021/04/28 06:37:49;;;;;;;3.50;3.20;;;;;;;13.22;45.68;95506.56;5067438;28;20185;-63
2021/04/28 06:40:15;;;;;;;3.90;3.60;;;;;;;13.24;45.68;95507.06;5058732;28;20182;-63
2021/04/28 06:42:40;;;;;;;3.47;3.17;;;;;;;13.36;45.84;95504.88;5052661;28;20666;-62
2021/04/28 06:45:07;;;;;;;4.97;3.47;;;;;;;13.52;44.88;95505.53;5067694;28;20174;-62
2021/04/28 06:47:33;;;;;;;3.77;3.47;;;;;;;13.54;45.02;95503.44;5059184;28;20177;-62
2021/04/28 06:49:58;;;;;;;5.37;3.30;;;;;;;13.62;45.20;95497.56;5062643;28;20584;-63
2021/04/28 06:52:24;;;;;;;4.90;3.57;;;;;;;13.89;43.82;95499.66;5064590;28;20271;-63
2021/04/28 06:54:49;;;;;;;4.17;3.50;;;;;;;14.03;43.63;95506.66;5053267;28;20182;-64
2021/04/28 06:57:15;;;;;;;5.93;3.83;;;;;;;14.13;43.56;95501.28;5079479;28;20287;-64
2021/04/28 06:59:40;;;;;;;4.23;3.83;;;;;;;14.26;43.52;95507.72;5091196;28;20216;-63
2021/04/28 07:02:06;;;;;;;4.13;3.73;;;;;;;14.53;43.46;95504.53;5090544;28;20226;-64
2021/04/28 07:04:32;;;;;;;4.13;3.80;;;;;;;14.50;43.10;95510.38;5077275;28;20191;-64
2021/04/28 07:06:59;;;;;;;4.50;3.57;;;;;;;14.43;43.41;95509.94;5076056;28;20278;-63
2021/04/28 07:09:24;;;;;;;4.20;3.80;;;;;;;14.47;43.61;95505.66;5095090;28;20161;-65
2021/04/28 07:11:50;;;;;;;4.50;3.70;;;;;;;14.61;43.10;95505.75;5095523;28;20172;-64
2021/04/28 07:14:16;;;;;;;4.20;3.80;;;;;;;14.71;42.75;95511.66;5094558;28;20233;-63
2021/04/28 07:16:43;;;;;;;6.97;4.43;;;;;;;14.72;42.85;95507.97;5095516;28;20168;-63
2021/04/28 07:19:08;;;;;;;4.50;3.97;;;;;;;14.74;42.47;95508.47;5093042;28;20669;-64
2021/04/28 07:21:34;;;;;;;4.57;3.93;;;;;;;14.96;41.86;95507.94;5090908;28;20207;-63
2021/04/28 07:24:00;;;;;;;6.67;3.90;;;;;;;14.92;42.25;95512.22;5090359;28;20228;-63
2021/04/28 07:26:27;;;;;;;4.95;4.38;;;;;;;14.89;42.29;95510.13;5090397;28;20275;-63
2021/04/28 07:28:52;;;;;;;4.18;3.78;;;;;;;14.94;42.57;95508.19;5091617;28;20165;-65
2021/04/28 07:31:19;;;;;;;4.40;4.00;;;;;;;14.89;42.74;95512.75;5090272;28;20180;-63
2021/04/28 07:33:45;;;;;;;4.20;3.75;;;;;;;15.05;42.46;95518.59;5090685;28;20208;-64
2021/04/28 07:36:11;;;;;;;3.88;3.58;;;;;;;15.17;42.96;95516.34;5089574;28;20176;-66
2021/04/28 07:38:36;;;;;;;4.47;3.93;;;;;;;15.01;43.24;95515.78;5091022;28;20203;-63
2021/04/28 07:41:03;;;;;;;4.97;3.67;;;;;;;15.19;43.56;95516.84;5090950;28;20168;-64
2021/04/28 07:43:28;;;;;;;4.57;4.18;;;;;;;15.34;43.02;95517.41;5090312;28;20212;-65
2021/04/28 07:45:54;;;;;;;5.30;3.85;;;;;;;15.46;43.18;95519.59;5090768;28;20165;-65
2021/04/28 07:48:20;;;;;;;4.37;3.97;;;;;;;15.26;43.21;95512.00;5093063;28;20183;-65
2021/04/28 07:50:46;;;;;;;4.33;3.97;;;;;;;15.42;43.16;95515.97;5094715;28;20722;-65
2021/04/28 07:53:12;;;;;;;4.68;4.20;;;;;;;15.52;43.31;95517.69;5093958;28;20200;-65
2021/04/28 07:58:04;;;;;;;6.68;4.35;;;;;;;15.53;42.41;95517.41;5094171;28;20335;-65
2021/04/28 08:00:30;;;;;;;4.67;4.27;;;;;;;15.43;43.13;95517.53;5098084;28;20181;-65
2021/04/28 08:02:55;;;;;;;6.60;4.35;;;;;;;15.57;42.50;95526.31;5098221;28;20557;-66
2021/04/28 08:05:22;;;;;;;4.80;4.40;;;;;;;15.61;42.89;95527.28;5096651;28;20179;-65
2021/04/28 08:07:49;;;;;;;5.35;4.22;;;;;;;15.78;42.61;95524.91;5097026;28;20256;-65
2021/04/28 08:10:16;;;;;;;4.85;4.32;;;;;;;15.95;42.08;95519.06;5095494;28;20169;-67
2021/04/28 08:12:41;;;;;;;4.55;4.15;;;;;;;15.76;42.74;95524.44;5096687;28;20232;-64
2021/04/28 08:15:09;;;;;;;4.85;4.32;;;;;;;15.91;42.39;95523.38;5097148;28;20381;-64
2021/04/28 08:17:35;;;;;;;4.78;4.38;;;;;;;15.96;42.59;95525.13;5097093;28;20691;-64
2021/04/28 08:20:02;;;;;;;4.60;4.20;;;;;;;16.03;42.61;95526.34;5096827;28;20199;-64
2021/04/28 08:22:28;;;;;;;4.10;3.80;;;;;;;16.10;42.68;95524.09;5093800;28;20219;-67
2021/04/28 08:24:55;;;;;;;4.32;4.00;;;;;;;16.08;43.37;95523.59;5094326;28;20177;-65
2021/04/28 08:27:21;;;;;;;4.75;4.15;;;;;;;16.10;42.89;95528.59;5093792;28;20541;-64
2021/04/28 08:29:47;;;;;;;4.55;4.15;;;;;;;16.23;42.77;95518.03;5094993;28;20184;-64
2021/04/28 08:32:12;;;;;;;5.78;4.82;;;;;;;15.84;42.86;95517.66;5095087;28;20698;-64
2021/04/28 08:34:38;;;;;;;5.35;4.85;;;;;;;15.75;43.69;95519.44;5095440;28;20249;-64
2021/04/28 08:37:03;;;;;;;4.63;4.13;;;;;;;15.90;43.38;95523.66;5094561;28;20216;-64
2021/04/28 08:39:29;;;;;;;5.25;4.75;;;;;;;15.97;42.91;95516.13;5092647;28;20197;-63
2021/04/28 08:41:54;;;;;;;5.10;4.47;;;;;;;16.02;43.76;95519.47;5094187;28;20172;-64
2021/04/28 08:44:20;;;;;;;4.97;4.45;;;;;;;16.10;42.92;95513.53;5094810;28;20199;-63
2021/04/28 08:46:47;;;;;;;4.72;4.30;;;;;;;16.30;42.75;95520.28;5096881;28;20181;-64
2021/04/28 08:49:13;;;;;;;5.05;4.55;;;;;;;16.41;42.44;95510.28;5093285;28;20207;-64
2021/04/28 08:51:39;;;;;;;6.03;5.03;;;;;;;16.56;42.51;95504.69;5093754;28;20208;-64
2021/04/28 08:54:05;;;;;;;5.10;4.53;;;;;;;16.73;41.89;95504.13;5093301;28;20253;-64
2021/04/28 08:56:32;;;;;;;6.97;4.75;;;;;;;16.82;42.08;95505.78;5091405;28;20301;-64
2021/04/28 08:58:58;;;;;;;4.47;4.07;;;;;;;17.00;41.64;95510.13;5092220;28;20684;-64
2021/04/28 09:01:30;;;;;;;5.65;4.40;;;;;;;17.10;41.31;95495.13;5092959;28;20172;-65
2021/04/28 09:04:00;;;;;;;4.70;4.28;;;;;;;17.18;40.70;95500.47;5093503;28;20286;-65
2021/04/28 09:06:33;;;;;;;6.00;4.93;;;;;;;16.96;41.39;95506.53;5093163;28;20506;-64
2021/04/28 09:09:07;;;;;;;4.68;4.18;;;;;;;16.99;41.57;95508.59;5093418;28;20222;-63
2021/04/28 09:11:51;;;;;;;4.93;4.40;;;;;;;17.11;40.93;95500.09;5093440;28;20645;-65
2021/04/28 09:14:28;;;;;;;5.53;5.03;;;;;;;16.98;41.25;95507.03;5091771;28;20706;-64
2021/04/28 09:16:53;;;;;;;5.60;5.00;;;;;;;16.80;40.77;95504.50;5093644;28;20651;-64
2021/04/28 09:19:45;;;;;;;4.82;4.38;;;;;;;16.74;41.50;95509.13;5092927;28;20200;-64
2021/04/28 09:22:15;;;;;;;6.45;5.00;;;;;;;16.93;40.74;95509.78;5092554;28;20161;-65
2021/04/28 09:24:50;;;;;;;6.93;5.05;;;;;;;16.89;40.84;95502.72;5093549;28;20172;-64
2021/04/28 09:27:45;;;;;;;6.05;5.13;;;;;;;17.08;40.59;95502.59;5071082;28;20242;-64
2021/04/28 09:30:23;;;;;;;5.63;4.90;;;;;;;17.09;40.22;95501.50;5048744;28;20200;-65
2021/04/28 09:32:50;;;;;;;7.15;5.15;;;;;;;17.23;39.34;95499.59;5093291;28;20555;-65
2021/04/28 09:35:20;;;;;;;5.45;4.60;;;;;;;17.21;38.72;95502.56;5091705;28;20179;-65
2021/04/28 09:37:59;;;;;;;6.05;4.93;;;;;;;17.26;38.79;95496.34;5092838;28;20178;-65
2021/04/28 09:40:48;;;;;;;7.20;5.05;;;;;;;17.33;38.45;95492.19;5092211;28;20227;-65
2021/04/28 09:43:14;;;;;;;7.90;5.15;;;;;;;17.36;37.69;95496.91;5090291;28;20200;-65
2021/04/28 09:45:43;;;;;;;5.97;4.93;;;;;;;17.36;36.45;95496.09;5093184;28;20183;-66
2021/04/28 09:48:16;;;;;;;7.15;4.13;;;;;;;17.17;37.13;95488.31;5092797;28;20176;-65
2021/04/28 09:50:41;;;;;;;4.70;4.22;;;;;;;17.19;37.46;95483.53;5092676;28;20172;-65
2021/04/28 09:53:06;;;;;;;5.00;4.35;;;;;;;17.36;36.24;95481.00;5092722;28;20742;-65
2021/04/28 09:58:03;;;;;;;4.60;4.00;;;;;;;17.54;36.85;95470.53;5088995;28;20229;-69
2021/04/28 10:00:29;;;;;;;4.70;3.95;;;;;;;17.41;34.33;95477.44;5091932;28;20700;-63
2021/04/28 10:02:54;;;;;;;4.47;4.13;;;;;;;17.39;35.01;95472.44;5092694;28;20685;-63
2021/04/28 10:05:36;;;;;;;3.83;3.53;;;;;;;17.36;34.06;95467.75;5091722;28;20242;-64
2021/04/28 10:08:20;;;;;;;4.30;3.90;;;;;;;17.19;34.38;95461.56;5092196;28;20189;-63
2021/04/28 10:10:50;;;;;;;3.47;3.05;;;;;;;17.10;31.26;95466.78;5092871;28;20251;-62
2021/04/28 10:13:16;;;;;;;3.42;3.13;;;;;;;17.04;31.77;95468.78;5093570;28;20197;-64
2021/04/28 10:15:46;;;;;;;4.28;3.40;;;;;;;16.98;32.81;95459.38;5092086;28;20208;-64
2021/04/28 10:18:13;;;;;;;5.45;4.00;;;;;;;17.28;32.84;95462.38;5076237;28;20171;-64
2021/04/28 10:20:43;;;;;;;3.42;3.20;;;;;;;17.37;32.60;95456.09;5093042;28;20165;-65
2021/04/28 10:23:10;;;;;;;3.60;3.25;;;;;;;17.49;32.36;95460.06;5093253;28;20703;-67
2021/04/28 10:25:38;;;;;;;4.28;3.95;;;;;;;17.55;31.94;95438.44;5092874;28;20181;-64
2021/04/28 10:28:06;;;;;;;3.67;3.38;;;;;;;17.66;32.53;95444.28;5092985;28;20175;-64
2021/04/28 10:30:44;;;;;;;3.50;3.20;;;;;;;17.81;32.55;95447.31;5091431;28;20159;-64
2021/04/28 10:33:17;;;;;;;3.63;3.33;;;;;;;17.85;32.50;95456.22;5091474;28;20211;-64
2021/04/28 10:35:43;;;;;;;3.10;2.80;;;;;;;17.95;32.10;95443.78;5092016;28;20255;-64
2021/04/28 10:38:09;;;;;;;3.22;2.95;;;;;;;17.90;31.69;95444.69;5091713;28;20208;-64
2021/04/28 10:40:36;;;;;;;3.65;3.35;;;;;;;17.88;30.70;95440.81;5091270;28;20200;-65
2021/04/28 10:43:10;;;;;;;3.40;3.15;;;;;;;18.00;31.66;95441.78;5072990;28;20212;-62
2021/04/28 10:45:38;;;;;;;4.43;3.80;;;;;;;18.18;30.88;95442.63;5091328;28;20169;-63
2021/04/28 10:48:07;;;;;;;4.15;3.75;;;;;;;18.11;30.21;95440.41;5091973;28;20257;-63
2021/04/28 10:50:48;;;;;;;3.78;3.47;;;;;;;18.28;31.79;95429.84;5090567;28;20813;-69
2021/04/28 10:53:22;;;;;;;3.90;3.40;;;;;;;18.43;30.31;95426.00;5090908;28;20204;-63
2021/04/28 10:55:56;;;;;;;3.03;2.83;;;;;;;18.90;30.00;95424.34;5088707;28;20218;-63
2021/04/28 10:58:25;;;;;;;4.07;3.60;;;;;;;19.04;28.43;95429.53;5089868;28;20161;-63
2021/04/28 11:01:00;;;;;;;3.70;3.20;;;;;;;19.24;30.16;95428.88;5091124;28;20513;-63
2021/04/28 11:03:40;;;;;;;4.15;3.42;;;;;;;19.63;30.10;95435.09;5070420;28;20200;-66
2021/04/28 11:06:25;;;;;;;3.70;3.40;;;;;;;19.76;29.04;95429.59;5083425;28;20544;-62
2021/04/28 11:08:54;;;;;;;4.07;3.78;;;;;;;19.62;28.54;95436.19;5080128;28;20184;-62
2021/04/28 11:14:09;;;;;;;3.30;3.10;;;;;;;19.98;28.74;95423.25;5090775;28;20220;-62
2021/04/28 11:16:38;;;;;;;3.42;3.20;;;;;;;19.82;27.52;95416.91;5071594;28;20176;-64
2021/04/28 11:19:33;;;;;;;3.38;3.15;;;;;;;19.99;28.80;95422.16;5089787;28;20189;-64
2021/04/28 11:22:21;;;;;;;3.40;3.20;;;;;;;20.19;28.22;95413.44;5088785;28;20633;-63
2021/04/28 11:25:12;;;;;;;4.15;3.63;;;;;;;20.41;28.48;95414.28;5090845;28;20173;-62
2021/04/28 11:28:00;;;;;;;3.50;3.20;;;;;;;20.78;28.24;95413.44;5089833;28;20187;-62
2021/04/28 11:30:51;;;;;;;3.83;3.30;;;;;;;20.95;27.12;95407.19;5089257;28;20656;-62
2021/04/28 11:33:30;;;;;;;3.85;3.55;;;;;;;21.00;26.68;95412.31;5088853;28;20653;-63
2021/04/28 11:35:55;;;;;;;3.88;3.53;;;;;;;21.04;25.97;95421.22;5083444;28;20222;-63
2021/04/28 11:38:29;;;;;;;4.25;3.45;;;;;;;21.01;26.74;95408.56;5089936;28;20180;-63
2021/04/28 11:41:01;;;;;;;4.15;3.75;;;;;;;20.87;25.69;95403.50;5084522;28;20196;-63
2021/04/28 11:43:28;;;;;;;6.65;6.05;;;;;;;20.75;26.49;95398.09;5090320;28;20205;-63
2021/04/28 11:46:01;;;;;;;5.93;5.53;;;;;;;20.90;26.22;95402.81;5090605;28;20169;-63
2021/04/28 11:48:28;;;;;;;25.27;22.90;;;;;;;21.01;26.64;95400.56;5089753;28;20574;-63